Time;durP1;ratioP1;P1;durP2;ratioP2;P2;SDS_P1;SDS_P2;PMS_P1;PMS_P2;Temp;Humidity;BMP_temperature;BMP_pressure;BME280_temperature;BME280_humidity;BME280_pressure;Samples;Min_cycle;Max_cycle;Signal;HPM_P1;HPM_P2
2023/06/15 00:02:09;;;;;;;;;;;;;;;15.75;98.17;101796.84;4988895;28;19928;-76
2023/06/15 00:04:34;;;;;;;;;;;;;;;15.59;99.01;101802.69;4967185;28;19922;-76
2023/06/15 00:07:00;;;;;;;;;;;;;;;15.56;100.00;101802.94;4976722;28;20244;-76
2023/06/15 00:09:25;;;;;;;;;;;;;;;15.52;100.00;101795.22;4975199;28;19926;-76
2023/06/15 00:11:50;;;;;;;;;;;;;;;15.44;100.00;101799.44;4971098;28;19984;-76
2023/06/15 00:14:15;;;;;;;;;;;;;;;15.38;100.00;101796.38;4969200;28;19921;-76
2023/06/15 00:16:41;;;;;;;;;;;;;;;15.29;100.00;101796.16;4973360;28;19965;-76
2023/06/15 00:19:08;;;;;;;;;;;;;;;15.13;100.00;101799.25;4993912;28;20008;-76
2023/06/15 00:21:34;;;;;;;;;;;;;;;15.04;100.00;101793.75;4977198;28;19925;-76
2023/06/15 00:23:59;;;;;;;;;;;;;;;14.96;100.00;101791.69;4976029;28;19921;-76
2023/06/15 00:26:26;;;;;;;;;;;;;;;14.93;100.00;101790.09;4973893;28;20747;-76
2023/06/15 00:28:51;;;;;;;;;;;;;;;14.89;100.00;101793.16;4969408;28;19926;-75
2023/06/15 00:31:16;;;;;;;;;;;;;;;14.74;100.00;101798.81;4974909;28;20395;-76
2023/06/15 00:33:42;;;;;;;;;;;;;;;14.68;100.00;101799.28;4971321;28;21457;-76
2023/06/15 00:36:10;;;;;;;;;;;;;;;14.59;100.00;101797.31;4977338;28;19922;-76
2023/06/15 00:38:36;;;;;;;;;;;;;;;14.52;100.00;101803.22;4970456;28;19926;-76
2023/06/15 00:41:01;;;;;;;;;;;;;;;14.42;100.00;101790.56;4979764;28;19925;-76
2023/06/15 00:43:27;;;;;;;;;;;;;;;14.43;100.00;101801.25;4979574;28;19933;-76
2023/06/15 00:45:52;;;;;;;;;;;;;;;14.41;100.00;101808.59;4978557;28;19924;-76
2023/06/15 00:48:17;;;;;;;;;;;;;;;14.34;100.00;101805.53;4979273;28;19922;-75
2023/06/15 00:50:42;;;;;;;;;;;;;;;14.30;100.00;101809.44;4979731;28;20657;-76
2023/06/15 00:53:08;;;;;;;;;;;;;;;14.30;100.00;101812.16;4980572;28;20431;-75
2023/06/15 00:55:33;;;;;;;;;;;;;;;14.22;100.00;101819.97;4983596;28;19929;-76
2023/06/15 00:57:59;;;;;;;;;;;;;;;14.06;100.00;101815.78;4978884;28;20037;-75
2023/06/15 01:00:24;;;;;;;;;;;;;;;14.03;100.00;101813.31;4978401;28;20530;-75
2023/06/15 01:02:50;;;;;;;;;;;;;;;14.13;100.00;101826.13;4994347;28;20436;-76
2023/06/15 01:05:16;;;;;;;;;;;;;;;14.19;100.00;101820.22;4980432;28;20410;-75
2023/06/15 01:07:46;;;;;;;;;;;;;;;14.28;100.00;101814.13;4977923;28;19925;-75
2023/06/15 01:10:12;;;;;;;;;;;;;;;14.39;100.00;101818.66;4994720;28;20004;-76
2023/06/15 01:12:40;;;;;;;;;;;;;;;14.49;100.00;101818.78;4980197;28;20056;-75
2023/06/15 01:15:06;;;;;;;;;;;;;;;14.62;100.00;101815.97;4986112;28;19921;-75
2023/06/15 01:17:32;;;;;;;;;;;;;;;14.60;100.00;101821.53;4982305;28;19969;-75
2023/06/15 01:19:57;;;;;;;;;;;;;;;14.72;100.00;101818.84;4982884;28;19926;-75
2023/06/15 01:22:45;;;;;;;;;;;;;;;14.76;100.00;101815.78;4975838;28;19921;-75
2023/06/15 01:25:26;;;;;;;;;;;;;;;14.79;100.00;101822.78;4978977;28;20340;-75
2023/06/15 01:27:58;;;;;;;;;;;;;;;14.80;100.00;101824.50;4978194;28;19925;-75
2023/06/15 01:30:23;;;;;;;;;;;;;;;14.79;100.00;101823.66;4979155;28;19930;-75
2023/06/15 01:32:48;;;;;;;;;;;;;;;14.79;100.00;101820.94;4976494;28;19921;-75
2023/06/15 01:35:14;;;;;;;;;;;;;;;14.85;100.00;101825.00;4979242;28;20016;-76
2023/06/15 01:37:39;;;;;;;;;;;;;;;14.92;100.00;101830.75;4974429;28;19967;-75
2023/06/15 01:40:04;;;;;;;;;;;;;;;15.00;100.00;101834.56;4981933;28;19922;-75
2023/06/15 01:42:30;;;;;;;;;;;;;;;15.08;100.00;101827.69;4988277;28;19933;-75
2023/06/15 01:44:57;;;;;;;;;;;;;;;15.04;100.00;101828.91;4998099;28;20009;-75
2023/06/15 01:47:23;;;;;;;;;;;;;;;15.06;100.00;101833.22;4963873;28;19918;-75
2023/06/15 01:49:48;;;;;;;;;;;;;;;15.16;100.00;101833.34;4967357;28;19928;-75
2023/06/15 01:52:13;;;;;;;;;;;;;;;15.15;100.00;101828.91;4982422;28;19941;-75
2023/06/15 01:54:39;;;;;;;;;;;;;;;15.12;100.00;101821.03;4981022;28;19969;-75
2023/06/15 01:57:05;;;;;;;;;;;;;;;14.98;100.00;101822.16;4967070;28;19929;-75
2023/06/15 01:59:30;;;;;;;;;;;;;;;14.95;100.00;101825.09;4967361;28;20360;-75
2023/06/15 02:01:55;;;;;;;;;;;;;;;14.92;100.00;101822.66;4965046;28;19925;-75
2023/06/15 02:04:21;;;;;;;;;;;;;;;14.86;100.00;101821.31;4978667;28;20271;-75
2023/06/15 02:06:46;;;;;;;;;;;;;;;14.78;100.00;101821.94;4982014;28;19961;-74
2023/06/15 02:09:11;;;;;;;;;;;;;;;14.70;100.00;101824.38;4981640;28;20288;-75
2023/06/15 02:11:36;;;;;;;;;;;;;;;14.64;100.00;101831.13;4999369;28;20727;-75
2023/06/15 02:14:05;;;;;;;;;;;;;;;14.68;100.00;101821.81;4959366;28;19981;-75
2023/06/15 02:16:32;;;;;;;;;;;;;;;14.75;100.00;101824.88;4982757;28;19929;-75
2023/06/15 02:19:00;;;;;;;;;;;;;;;14.72;100.00;101824.25;4982076;28;19951;-75
2023/06/15 02:21:25;;;;;;;;;;;;;;;14.74;100.00;101822.28;4976828;28;19922;-75
2023/06/15 02:23:51;;;;;;;;;;;;;;;14.83;100.00;101824.25;4977529;28;19932;-75
2023/06/15 02:26:16;;;;;;;;;;;;;;;14.82;100.00;101828.81;4976545;28;20395;-75
2023/06/15 02:28:42;;;;;;;;;;;;;;;14.82;100.00;101828.81;4974519;28;19922;-76
2023/06/15 02:31:07;;;;;;;;;;;;;;;14.82;100.00;101826.13;4977293;28;19929;-75
2023/06/15 02:33:32;;;;;;;;;;;;;;;14.73;100.00;101823.25;4975221;28;19925;-75
2023/06/15 02:35:57;;;;;;;;;;;;;;;14.65;100.00;101838.25;4975089;28;19944;-75
2023/06/15 02:38:23;;;;;;;;;;;;;;;14.54;100.00;101832.81;4977359;28;20297;-75
2023/06/15 02:40:48;;;;;;;;;;;;;;;14.41;100.00;101814.00;4977162;28;19928;-75
2023/06/15 02:43:13;;;;;;;;;;;;;;;14.45;100.00;101828.13;4958755;28;19921;-75
2023/06/15 02:45:38;;;;;;;;;;;;;;;14.38;100.00;101831.34;4974743;28;20005;-75
2023/06/15 02:48:04;;;;;;;;;;;;;;;14.41;100.00;101832.91;4978630;28;20048;-76
2023/06/15 02:50:29;;;;;;;;;;;;;;;14.44;100.00;101845.31;4977601;28;20408;-76
2023/06/15 02:52:55;;;;;;;;;;;;;;;14.40;100.00;101842.00;4977610;28;20031;-75
2023/06/15 02:55:21;;;;;;;;;;;;;;;14.39;100.00;101841.16;4976368;28;19960;-76
2023/06/15 02:57:47;;;;;;;;;;;;;;;14.34;100.00;101842.47;4974441;28;19973;-75
2023/06/15 03:00:13;;;;;;;;;;;;;;;14.31;100.00;101840.00;4974861;28;20418;-75
2023/06/15 03:02:38;;;;;;;;;;;;;;;14.22;100.00;101839.78;4970272;28;19930;-75
2023/06/15 03:05:04;;;;;;;;;;;;;;;14.14;100.00;101838.66;4977579;28;19921;-76
2023/06/15 03:07:30;;;;;;;;;;;;;;;14.14;100.00;101835.94;4975591;28;20359;-75
2023/06/15 03:09:55;;;;;;;;;;;;;;;14.10;100.00;101844.28;4978145;28;19922;-75
2023/06/15 03:12:20;;;;;;;;;;;;;;;13.91;100.00;101838.53;4971755;28;19949;-76
2023/06/15 03:14:50;;;;;;;;;;;;;;;13.71;100.00;101837.38;4975912;28;19984;-75
2023/06/15 03:17:15;;;;;;;;;;;;;;;13.61;100.00;101840.75;4975983;28;19961;-76
2023/06/15 03:19:41;;;;;;;;;;;;;;;13.47;100.00;101843.66;4974638;28;20068;-75
2023/06/15 03:22:07;;;;;;;;;;;;;;;13.41;100.00;101844.94;4974184;28;19978;-76
2023/06/15 03:24:33;;;;;;;;;;;;;;;13.36;100.00;101849.81;4978433;28;20374;-75
2023/06/15 03:27:01;;;;;;;;;;;;;;;13.33;100.00;101845.47;4980047;28;19929;-75
2023/06/15 03:29:27;;;;;;;;;;;;;;;13.30;100.00;101842.16;4971598;28;19918;-75
2023/06/15 03:31:52;;;;;;;;;;;;;;;13.26;100.00;101844.19;4970793;28;20003;-76
2023/06/15 03:34:17;;;;;;;;;;;;;;;13.24;100.00;101848.00;4965735;28;19926;-75
2023/06/15 03:36:43;;;;;;;;;;;;;;;13.18;100.00;101846.63;4976077;28;19961;-75
2023/06/15 03:39:08;;;;;;;;;;;;;;;13.14;100.00;101845.97;4976917;28;20005;-75
2023/06/15 03:41:37;;;;;;;;;;;;;;;13.12;100.00;101847.06;4973265;28;19921;-75
2023/06/15 03:44:02;;;;;;;;;;;;;;;13.10;100.00;101849.00;4971810;28;20403;-75
2023/06/15 03:46:27;;;;;;;;;;;;;;;13.08;100.00;101849.13;4977701;28;19926;-75
2023/06/15 03:48:52;;;;;;;;;;;;;;;13.10;100.00;101846.31;4974979;28;20056;-75
2023/06/15 03:51:17;;;;;;;;;;;;;;;13.11;100.00;101848.03;4972383;28;19921;-75
2023/06/15 03:53:43;;;;;;;;;;;;;;;13.10;100.00;101852.56;4970932;28;20021;-75
2023/06/15 03:56:08;;;;;;;;;;;;;;;13.13;100.00;101851.47;4973039;28;19928;-75
2023/06/15 03:58:33;;;;;;;;;;;;;;;13.18;100.00;101857.41;4998651;22;19936;-75
2023/06/15 04:00:58;;;;;;;;;;;;;;;13.17;100.00;101848.44;4987549;28;20425;-75
2023/06/15 04:03:24;;;;;;;;;;;;;;;13.13;100.00;101854.16;4985886;28;20440;-75
2023/06/15 04:05:49;;;;;;;;;;;;;;;13.07;100.00;101849.22;4985696;28;19921;-75
2023/06/15 04:08:14;;;;;;;;;;;;;;;13.05;100.00;101858.28;4987494;28;19925;-75
2023/06/15 04:10:40;;;;;;;;;;;;;;;13.08;100.00;101857.22;4986709;28;19980;-75
2023/06/15 04:13:05;;;;;;;;;;;;;;;13.14;100.00;101856.75;4990849;28;19925;-75
2023/06/15 04:15:31;;;;;;;;;;;;;;;13.20;100.00;101855.47;4993376;28;19922;-76
2023/06/15 04:18:00;;;;;;;;;;;;;;;13.24;100.00;101856.97;4994930;28;19943;-75
2023/06/15 04:20:27;;;;;;;;;;;;;;;13.29;100.00;101856.63;4991144;28;19921;-75
2023/06/15 04:22:52;;;;;;;;;;;;;;;13.25;100.00;101863.19;4994928;28;19930;-75
2023/06/15 04:25:17;;;;;;;;;;;;;;;13.25;100.00;101863.19;4991553;28;19921;-75
2023/06/15 04:27:44;;;;;;;;;;;;;;;13.30;100.00;101869.97;4985528;28;20297;-75
2023/06/15 04:30:10;;;;;;;;;;;;;;;13.35;100.00;101875.06;4989801;28;19921;-75
2023/06/15 04:32:35;;;;;;;;;;;;;;;13.40;100.00;101875.53;4990819;28;19926;-75
2023/06/15 04:35:01;;;;;;;;;;;;;;;13.44;100.00;101873.53;5004522;28;20473;-75
2023/06/15 04:37:28;;;;;;;;;;;;;;;13.53;100.00;101880.94;4990058;28;20378;-75
2023/06/15 04:39:54;;;;;;;;;;;;;;;13.57;100.00;101879.75;4992997;28;20395;-75
2023/06/15 04:42:19;;;;;;;;;;;;;;;13.68;100.00;101875.38;4989507;28;19964;-75
2023/06/15 04:44:45;;;;;;;;;;;;;;;13.74;100.00;101883.88;4987345;28;19965;-75
2023/06/15 04:47:10;;;;;;;;;;;;;;;13.86;100.00;101882.09;4991046;28;20007;-76
2023/06/15 04:49:35;;;;;;;;;;;;;;;13.98;100.00;101883.00;4988557;28;19963;-75
2023/06/15 04:52:01;;;;;;;;;;;;;;;14.12;100.00;101884.66;4995417;28;20018;-75
2023/06/15 04:54:26;;;;;;;;;;;;;;;14.24;100.00;101881.03;5003498;28;20494;-75
2023/06/15 04:56:52;;;;;;;;;;;;;;;14.35;100.00;101882.03;4976661;28;19983;-75
2023/06/15 04:59:17;;;;;;;;;;;;;;;14.45;100.00;101890.28;4992600;28;20031;-75
2023/06/15 05:01:42;;;;;;;;;;;;;;;14.59;100.00;101889.19;4982259;28;19922;-75
2023/06/15 05:04:08;;;;;;;;;;;;;;;14.76;100.00;101888.78;4970909;28;20345;-75
2023/06/15 05:06:33;;;;;;;;;;;;;;;14.91;100.00;101883.13;4975638;28;19926;-75
2023/06/15 05:08:58;;;;;;;;;;;;;;;15.02;100.00;101888.53;4977160;28;19969;-75
2023/06/15 05:11:24;;;;;;;;;;;;;;;15.14;100.00;101884.00;4973834;28;19948;-75
2023/06/15 05:13:49;;;;;;;;;;;;;;;15.31;100.00;101890.72;4976122;28;20343;-75
2023/06/15 05:16:14;;;;;;;;;;;;;;;15.47;100.00;101892.19;4972693;28;19949;-75
2023/06/15 05:18:39;;;;;;;;;;;;;;;15.62;100.00;101899.03;4976256;28;20060;-75
2023/06/15 05:21:05;;;;;;;;;;;;;;;15.73;100.00;101901.69;4977384;28;19933;-75
2023/06/15 05:23:30;;;;;;;;;;;;;;;15.79;100.00;101894.91;4976209;28;19925;-75
2023/06/15 05:25:55;;;;;;;;;;;;;;;15.89;100.00;101895.91;4983735;28;20029;-75
2023/06/15 05:28:21;;;;;;;;;;;;;;;16.00;100.00;101896.88;4976794;28;19983;-75
2023/06/15 05:30:46;;;;;;;;;;;;;;;16.13;100.00;101893.97;4977786;28;19957;-75
2023/06/15 05:33:11;;;;;;;;;;;;;;;16.22;100.00;101897.75;4973993;28;20032;-74
2023/06/15 05:35:36;;;;;;;;;;;;;;;16.37;100.00;101890.16;4971304;28;20355;-75
2023/06/15 05:38:02;;;;;;;;;;;;;;;16.54;100.00;101896.84;4976105;28;20324;-75
2023/06/15 05:40:27;;;;;;;;;;;;;;;16.69;100.00;101894.59;4974303;28;20320;-75
2023/06/15 05:42:52;;;;;;;;;;;;;;;16.80;100.00;101899.97;4970249;28;20445;-75
2023/06/15 05:45:17;;;;;;;;;;;;;;;16.95;100.00;101895.03;4969734;28;20123;-75
2023/06/15 05:47:42;;;;;;;;;;;;;;;17.10;100.00;101895.56;4999320;28;19922;-75
2023/06/15 05:50:08;;;;;;;;;;;;;;;17.27;100.00;101899.50;4975419;28;19969;-74
2023/06/15 05:52:33;;;;;;;;;;;;;;;17.44;100.00;101902.53;4976914;28;20050;-74
2023/06/15 05:54:58;;;;;;;;;;;;;;;17.58;100.00;101904.88;4960305;28;20051;-74
2023/06/15 05:57:24;;;;;;;;;;;;;;;17.74;100.00;101900.72;4988235;28;20103;-75
2023/06/15 05:59:49;;;;;;;;;;;;;;;17.90;100.00;101901.03;4993344;28;19921;-74
2023/06/15 06:02:15;;;;;;;;;;;;;;;18.04;100.00;101905.19;4973088;28;20541;-74
2023/06/15 06:04:40;;;;;;;;;;;;;;;18.19;100.00;101902.91;4978108;28;19932;-75
2023/06/15 06:07:06;;;;;;;;;;;;;;;18.37;100.00;101907.63;4976445;28;19922;-75
2023/06/15 06:09:32;;;;;;;;;;;;;;;18.52;100.00;101905.31;4979213;28;19929;-75
2023/06/15 06:11:58;;;;;;;;;;;;;;;18.62;100.00;101905.31;4975678;28;20021;-76
2023/06/15 06:14:25;;;;;;;;;;;;;;;18.74;100.00;101902.25;4991028;28;20657;-76
2023/06/15 06:16:50;;;;;;;;;;;;;;;18.90;100.00;101900.78;4994661;28;20008;-75
2023/06/15 06:19:16;;;;;;;;;;;;;;;19.04;100.00;101904.91;4978164;28;19926;-76
2023/06/15 06:21:41;;;;;;;;;;;;;;;19.18;100.00;101896.25;4978700;28;19922;-76
2023/06/15 06:24:07;;;;;;;;;;;;;;;19.34;100.00;101892.84;4978721;28;19921;-76
2023/06/15 06:26:36;;;;;;;;;;;;;;;19.49;100.00;101892.34;4972698;28;20399;-76
2023/06/15 06:29:01;;;;;;;;;;;;;;;19.66;100.00;101900.69;4980749;28;19921;-76
2023/06/15 06:31:26;;;;;;;;;;;;;;;19.77;100.00;101897.75;4977771;28;20288;-76
2023/06/15 06:33:51;;;;;;;;;;;;;;;19.87;100.00;101900.41;4977200;28;20307;-76
2023/06/15 06:36:16;;;;;;;;;;;;;;;20.02;99.72;101907.03;4975482;28;20162;-76
2023/06/15 06:38:42;;;;;;;;;;;;;;;20.16;100.00;101902.06;4977447;28;19921;-76
2023/06/15 06:41:07;;;;;;;;;;;;;;;20.19;94.88;101912.66;4979863;28;19929;-76
2023/06/15 06:43:32;;;;;;;;;;;;;;;20.20;92.22;101890.69;4975134;28;19988;-75
2023/06/15 06:45:57;;;;;;;;;;;;;;;20.46;92.65;101913.56;4977177;28;20625;-76
2023/06/15 06:48:23;;;;;;;;;;;;;;;20.62;93.59;101905.47;4977267;28;20349;-76
2023/06/15 06:50:48;;;;;;;;;;;;;;;20.75;92.90;101904.22;4976031;28;19960;-76
2023/06/15 06:53:13;;;;;;;;;;;;;;;20.94;95.46;101911.31;4980777;28;20303;-76
2023/06/15 06:55:38;;;;;;;;;;;;;;;21.07;89.68;101911.75;4975700;28;20304;-76
2023/06/15 06:58:04;;;;;;;;;;;;;;;21.08;84.78;101912.59;4975068;28;20621;-76
2023/06/15 07:00:29;;;;;;;;;;;;;;;21.08;75.75;101905.28;4977581;28;20009;-76
2023/06/15 07:02:54;;;;;;;;;;;;;;;21.10;75.05;101910.56;4972509;28;19921;-76
2023/06/15 07:05:20;;;;;;;;;;;;;;;21.22;86.13;101903.81;4969661;28;19922;-76
2023/06/15 07:07:46;;;;;;;;;;;;;;;21.45;80.19;101902.34;4976808;28;20283;-76
2023/06/15 07:10:11;;;;;;;;;;;;;;;21.66;78.59;101907.38;4975922;28;19926;-77
2023/06/15 07:12:36;;;;;;;;;;;;;;;21.80;82.29;101906.75;4973449;28;19952;-76
2023/06/15 07:15:02;;;;;;;;;;;;;;;21.82;65.84;101907.44;4978546;28;19922;-76
2023/06/15 07:17:27;;;;;;;;;;;;;;;21.92;73.81;101909.13;4991627;28;20017;-77
2023/06/15 07:19:52;;;;;;;;;;;;;;;22.03;73.70;101911.53;4975873;28;20790;-75
2023/06/15 07:22:17;;;;;;;;;;;;;;;22.16;72.63;101914.63;4975676;28;19925;-77
2023/06/15 07:24:43;;;;;;;;;;;;;;;22.03;65.28;101912.38;4977203;28;19922;-76
2023/06/15 07:27:08;;;;;;;;;;;;;;;22.02;69.96;101907.09;4971309;28;19922;-76
2023/06/15 07:29:33;;;;;;;;;;;;;;;22.07;68.06;101910.19;4977392;28;19964;-77
2023/06/15 07:31:59;;;;;;;;;;;;;;;22.23;66.83;101909.34;4972570;28;19925;-76
2023/06/15 07:34:24;;;;;;;;;;;;;;;22.39;67.50;101915.81;4975935;28;20046;-76
2023/06/15 07:36:49;;;;;;;;;;;;;;;22.41;68.31;101905.56;4974736;28;19929;-76
2023/06/15 07:39:14;;;;;;;;;;;;;;;22.51;62.16;101906.28;4977397;28;20368;-77
2023/06/15 07:41:40;;;;;;;;;;;;;;;22.66;70.60;101909.13;4973647;28;19922;-76
2023/06/15 07:44:05;;;;;;;;;;;;;;;22.57;56.47;101910.19;4971550;28;20112;-76
2023/06/15 07:46:30;;;;;;;;;;;;;;;22.55;59.01;101909.50;4978687;28;19922;-77
2023/06/15 07:48:55;;;;;;;;;;;;;;;22.56;58.66;101905.75;4975777;28;20016;-76
2023/06/15 07:51:20;;;;;;;;;;;;;;;22.84;60.01;101913.56;4970561;28;19922;-76
2023/06/15 07:53:46;;;;;;;;;;;;;;;23.09;58.67;101908.00;4974426;28;19926;-76
2023/06/15 07:56:11;;;;;;;;;;;;;;;23.27;59.31;101911.38;4976465;28;19922;-76
2023/06/15 07:58:38;;;;;;;;;;;;;;;23.46;61.71;101903.75;4968246;28;19961;-76
2023/06/15 08:01:03;;;;;;;;;;;;;;;23.54;55.28;101903.72;4973828;28;19999;-76
2023/06/15 08:03:29;;;;;;;;;;;;;;;23.38;55.31;101903.81;4975006;28;20013;-76
2023/06/15 08:05:54;;;;;;;;;;;;;;;23.46;55.69;101907.34;4976049;28;19929;-76
2023/06/15 08:08:20;;;;;;;;;;;;;;;23.58;58.38;101913.28;4977000;28;19956;-76
2023/06/15 08:10:45;;;;;;;;;;;;;;;23.70;55.42;101910.97;4975834;28;19925;-76
2023/06/15 08:13:10;;;;;;;;;;;;;;;23.70;58.51;101912.88;4955710;28;20412;-75
2023/06/15 08:15:35;;;;;;;;;;;;;;;23.72;55.03;101908.03;4978168;28;19921;-76
2023/06/15 08:18:01;;;;;;;;;;;;;;;23.80;51.50;101905.25;4973371;28;19979;-77
2023/06/15 08:20:26;;;;;;;;;;;;;;;23.89;54.23;101898.69;4971864;28;19953;-76
2023/06/15 08:22:51;;;;;;;;;;;;;;;23.80;50.97;101908.00;4974396;28;20012;-76
2023/06/15 08:25:16;;;;;;;;;;;;;;;23.78;49.69;101905.47;4972440;28;19948;-73
2023/06/15 08:27:42;;;;;;;;;;;;;;;23.84;49.96;101903.88;4979153;28;20558;-74
2023/06/15 08:30:07;;;;;;;;;;;;;;;23.79;49.82;101903.56;4973947;28;19932;-77
2023/06/15 08:32:33;;;;;;;;;;;;;;;23.73;49.91;101907.00;4971839;28;19926;-74
2023/06/15 08:34:58;;;;;;;;;;;;;;;23.70;50.02;101902.75;4970969;28;20384;-77
2023/06/15 08:37:23;;;;;;;;;;;;;;;23.76;49.88;101902.03;4979118;28;20479;-76
2023/06/15 08:39:49;;;;;;;;;;;;;;;23.99;55.32;101903.09;4974049;28;19922;-75
2023/06/15 08:42:14;;;;;;;;;;;;;;;24.17;51.08;101911.03;4971801;28;19933;-77
2023/06/15 08:44:40;;;;;;;;;;;;;;;24.28;50.24;101907.84;4971603;28;19921;-77
2023/06/15 08:47:05;;;;;;;;;;;;;;;24.32;52.65;101905.56;4978408;28;19921;-75
2023/06/15 08:49:31;;;;;;;;;;;;;;;24.11;46.58;101902.47;4974689;28;20410;-74
2023/06/15 08:51:56;;;;;;;;;;;;;;;24.07;47.54;101905.78;4974557;28;19928;-76
2023/06/15 08:54:22;;;;;;;;;;;;;;;24.22;48.02;101909.44;4972913;28;19926;-76
2023/06/15 08:56:47;;;;;;;;;;;;;;;24.50;49.56;101906.06;4977068;28;19922;-76
2023/06/15 08:59:13;;;;;;;;;;;;;;;24.74;51.29;101906.06;4973695;28;19957;-75
2023/06/15 09:01:43;;;;;;;;;;;;;;;24.90;47.92;101897.63;4980538;28;20008;-76
2023/06/15 09:04:08;;;;;;;;;;;;;;;25.06;47.16;101909.47;4972755;28;19949;-76
2023/06/15 09:06:33;;;;;;;;;;;;;;;25.19;45.96;101906.06;4976684;28;19925;-79
2023/06/15 09:08:59;;;;;;;;;;;;;;;25.21;46.80;101898.47;4990582;28;19926;-74
2023/06/15 09:11:24;;;;;;;;;;;;;;;25.17;47.46;101897.97;4978307;28;19925;-75
2023/06/15 09:13:50;;;;;;;;;;;;;;;25.18;45.21;101901.59;4975748;28;20007;-76
2023/06/15 09:16:15;;;;;;;;;;;;;;;25.35;49.35;101905.81;4973288;28;19933;-79
2023/06/15 09:18:41;;;;;;;;;;;;;;;25.53;44.93;101899.13;4974370;28;19925;-77
2023/06/15 09:21:06;;;;;;;;;;;;;;;25.58;42.85;101896.59;4978537;28;19963;-78
2023/06/15 09:23:32;;;;;;;;;;;;;;;25.59;44.03;101895.56;4974220;28;19921;-77
2023/06/15 09:25:57;;;;;;;;;;;;;;;25.64;43.09;101890.34;4976076;28;19991;-76
2023/06/15 09:28:26;;;;;;;;;;;;;;;25.63;44.86;101891.38;4973740;28;20171;-77
2023/06/15 09:30:52;;;;;;;;;;;;;;;25.80;43.56;101892.00;4977946;28;19926;-76
2023/06/15 09:33:18;;;;;;;;;;;;;;;25.78;41.08;101893.25;4974490;28;19936;-76
2023/06/15 09:36:02;;;;;;;;;;;;;;;25.96;42.33;101893.63;4973134;28;19921;-75
2023/06/15 09:38:27;;;;;;;;;;;;;;;25.93;41.33;101891.28;4988360;28;20347;-74
2023/06/15 09:40:53;;;;;;;;;;;;;;;25.65;41.32;101889.28;4978019;28;19932;-75
2023/06/15 09:43:18;;;;;;;;;;;;;;;25.71;43.85;101893.16;4989837;28;19977;-78
2023/06/15 09:45:53;;;;;;;;;;;;;;;25.85;43.10;101885.88;4980747;28;19973;-76
2023/06/15 09:48:18;;;;;;;;;;;;;;;25.95;41.82;101893.84;4981150;28;20008;-76
2023/06/15 09:50:48;;;;;;;;;;;;;;;26.21;41.62;101890.50;4981439;28;20286;-73
2023/06/15 09:53:13;;;;;;;;;;;;;;;26.16;37.42;101893.00;4973134;28;19922;-76
2023/06/15 09:55:40;;;;;;;;;;;;;;;26.29;40.56;101887.63;4976575;28;19925;-72
2023/06/15 09:58:05;;;;;;;;;;;;;;;26.54;41.29;101887.16;4990112;28;20331;-73
2023/06/15 10:00:31;;;;;;;;;;;;;;;26.81;40.90;101884.63;4990767;28;20431;-77
2023/06/15 10:02:56;;;;;;;;;;;;;;;26.78;41.68;101890.50;4978224;28;20320;-77
2023/06/15 10:05:22;;;;;;;;;;;;;;;27.03;45.63;101879.84;4978964;28;19921;-77
2023/06/15 10:07:48;;;;;;;;;;;;;;;27.30;39.43;101885.47;4976376;28;19928;-78
2023/06/15 10:10:13;;;;;;;;;;;;;;;27.08;41.11;101884.75;4986406;28;19922;-78
2023/06/15 10:12:40;;;;;;;;;;;;;;;27.03;38.74;101881.75;4994769;28;19999;-75
2023/06/15 10:15:15;;;;;;;;;;;;;;;26.93;38.08;101890.41;4989932;28;19926;-79
2023/06/15 10:17:41;;;;;;;;;;;;;;;27.00;40.29;101883.03;4981175;28;19925;-76
2023/06/15 10:20:17;;;;;;;;;;;;;;;26.42;40.88;101886.00;4981937;28;19925;-80
2023/06/15 10:23:03;;;;;;;;;;;;;;;26.46;41.81;101890.94;4978869;28;19932;-76
2023/06/15 10:25:30;;;;;;;;;;;;;;;26.78;42.43;101882.22;4982744;28;19937;-73
2023/06/15 10:27:55;;;;;;;;;;;;;;;27.16;40.49;101883.72;4987533;28;20329;-72
2023/06/15 10:30:25;;;;;;;;;;;;;;;27.29;39.11;101878.25;4980147;28;20032;-74
2023/06/15 10:32:57;;;;;;;;;;;;;;;27.54;40.16;101877.75;4995227;28;19922;-75
2023/06/15 10:35:23;;;;;;;;;;;;;;;27.73;37.25;101876.06;4975164;28;19925;-74
2023/06/15 10:37:48;;;;;;;;;;;;;;;27.89;42.72;101876.75;4982097;28;20129;-74
2023/06/15 10:40:22;;;;;;;;;;;;;;;28.04;37.60;101879.31;4981039;28;19926;-75
2023/06/15 10:42:47;;;;;;;;;;;;;;;27.52;37.67;101877.09;4976336;28;20008;-75
2023/06/15 10:45:22;;;;;;;;;;;;;;;27.17;40.71;101885.41;4982239;28;20376;-75
2023/06/15 10:47:48;;;;;;;;;;;;;;;27.40;38.09;101891.44;4977423;28;19922;-76
2023/06/15 10:50:16;;;;;;;;;;;;;;;27.77;37.87;101880.13;4980974;28;19968;-74
2023/06/15 10:52:41;;;;;;;;;;;;;;;27.94;39.53;101882.50;4978338;28;19921;-75
2023/06/15 10:55:10;;;;;;;;;;;;;;;28.05;37.31;101879.09;4976780;28;19952;-75
2023/06/15 10:57:36;;;;;;;;;;;;;;;27.57;36.73;101882.00;4991660;28;19926;-77
2023/06/15 11:00:02;;;;;;;;;;;;;;;26.97;37.06;101877.91;4976867;28;19926;-77
2023/06/15 11:02:27;;;;;;;;;;;;;;;27.21;37.77;101883.97;4979205;28;19986;-75
2023/06/15 11:04:52;;;;;;;;;;;;;;;27.75;41.47;101879.47;4981855;28;20032;-80
2023/06/15 11:07:33;;;;;;;;;;;;;;;28.32;40.62;101881.03;4975779;28;20323;-79
2023/06/15 11:10:00;;;;;;;;;;;;;;;28.19;35.38;101881.91;4980177;28;19925;-77
2023/06/15 11:12:31;;;;;;;;;;;;;;;27.65;35.73;101870.78;4976307;28;19926;-74
2023/06/15 11:14:57;;;;;;;;;;;;;;;28.35;33.87;101877.81;4973242;28;19925;-76
2023/06/15 11:17:22;;;;;;;;;;;;;;;28.25;35.49;101875.50;4975091;28;19929;-73
2023/06/15 11:19:47;;;;;;;;;;;;;;;28.47;37.62;101851.25;4975279;28;19949;-75
2023/06/15 11:22:12;;;;;;;;;;;;;;;29.44;35.98;101875.41;4978198;28;20024;-77
2023/06/15 11:24:38;;;;;;;;;;;;;;;30.11;35.13;101871.38;4973618;28;20317;-76
2023/06/15 11:27:09;;;;;;;;;;;;;;;30.11;31.32;101876.91;4978229;28;19922;-78
2023/06/15 11:29:35;;;;;;;;;;;;;;;29.71;33.21;101866.13;4973619;28;20044;-78
2023/06/15 11:32:02;;;;;;;;;;;;;;;28.98;33.42;101835.84;4980801;28;19948;-76
2023/06/15 11:34:27;;;;;;;;;;;;;;;28.79;32.40;101879.06;4970358;28;19922;-76
2023/06/15 11:36:56;;;;;;;;;;;;;;;28.81;32.65;101862.25;4980007;28;19932;-74
2023/06/15 11:39:21;;;;;;;;;;;;;;;28.79;34.41;101868.03;4973554;28;19922;-75
2023/06/15 11:41:50;;;;;;;;;;;;;;;29.48;38.22;101856.47;4986361;28;20386;-75
2023/06/15 11:44:15;;;;;;;;;;;;;;;29.17;32.72;101866.38;4974472;28;20241;-75
2023/06/15 11:46:41;;;;;;;;;;;;;;;28.52;33.63;101870.81;4975061;28;20223;-76
2023/06/15 11:49:07;;;;;;;;;;;;;;;28.19;34.14;101859.81;4981399;28;20503;-76
2023/06/15 11:51:32;;;;;;;;;;;;;;;28.77;35.80;101861.00;4980221;28;19921;-76
2023/06/15 11:53:57;;;;;;;;;;;;;;;29.75;32.18;101854.38;4961752;28;20426;-76
2023/06/15 11:56:24;;;;;;;;;;;;;;;30.68;31.65;101848.25;4973150;28;20486;-75
2023/06/15 11:58:49;;;;;;;;;;;;;;;31.42;31.31;101842.63;4981497;28;20312;-76
2023/06/15 12:01:15;;;;;;;;;;;;;;;32.22;29.63;101848.00;4991651;28;19926;-76
2023/06/15 12:03:47;;;;;;;;;;;;;;;32.18;31.02;101852.34;4972453;28;20462;-75
2023/06/15 12:06:17;;;;;;;;;;;;;;;32.10;28.69;101848.00;4977953;28;19933;-78
2023/06/15 12:08:43;;;;;;;;;;;;;;;31.26;27.88;101835.81;4975777;28;19922;-76
2023/06/15 12:11:08;;;;;;;;;;;;;;;30.93;31.63;101842.66;4972024;28;19984;-78
2023/06/15 12:13:36;;;;;;;;;;;;;;;31.56;32.78;101834.13;4994459;28;19926;-77
2023/06/15 12:16:02;;;;;;;;;;;;;;;31.51;30.37;101842.31;4976956;28;19922;-77
2023/06/15 12:18:27;;;;;;;;;;;;;;;30.72;32.26;101830.09;4975628;28;19929;-78
2023/06/15 12:20:52;;;;;;;;;;;;;;;30.22;31.62;101834.63;4978015;28;19925;-77
2023/06/15 12:23:27;;;;;;;;;;;;;;;30.85;31.53;101831.03;4975066;28;19922;-76
2023/06/15 12:25:55;;;;;;;;;;;;;;;30.98;30.48;101822.53;4972337;28;19921;-77